This is the latest recevied weather packets stored in our database for station/object EA3RCF. If no packets are shown the sender has not sent any weather packets the latest 1 day(s).
| Time | Temp. | Humidity | Pressure | Rain* | Wind** | Luminosity | Snow |
|---|---|---|---|---|---|---|---|
| 1836274629 | 15° C | 92% | 1023.2 hPa | 0 mm | 0 m/s | - | - |
| 1836274428 | 15° C | 92% | 1023.3 hPa | 0 mm | 0.45 m/s, 162° | - | - |
| 1836274293 | 15° C | 92% | 1023.3 hPa | 0 mm | 0 m/s | - | - |
| 1836274130 | 15° C | 92% | 1023.2 hPa | 0 mm | 0 m/s | - | - |
| 1836273974 | 15° C | 92% | 1023.2 hPa | 0 mm | 0 m/s | - | - |
| 1777994307 | 17.22° C | 76% | 1010 hPa | 0 mm | 1.34 m/s, 346° | - | - |
| 1777993711 | 17.22° C | 76% | 1009.8 hPa | 0 mm | 1.34 m/s, 44° | - | - |
| 1777993412 | 17.22° C | 75% | 1009.8 hPa | 0 mm | 1.79 m/s, 44° | - | - |
| 1777993113 | 17.22° C | 75% | 1009.8 hPa | 0 mm | 1.79 m/s, 79° | - | - |
| 1777992794 | 17.22° C | 74% | 1009.9 hPa | 0 mm | 0.89 m/s, 59° | - | - |
| 1777992521 | 17.22° C | 72% | 1009.9 hPa | 0 mm | 1.79 m/s, 58° | - | - |
| 1777992203 | 17.22° C | 71% | 1010 hPa | 0 mm | 0.45 m/s, 337° | - | - |
| 1777991904 | 17.22° C | 71% | 1010.1 hPa | 0 mm | 0.89 m/s, 58° | - | - |
| 1777991613 | 16.67° C | 73% | 1010.1 hPa | 0 mm | 1.34 m/s, 109° | - | - |
| 1777991312 | 16.11° C | 75% | 1010.2 hPa | 0 mm | 1.34 m/s, 81° | - | - |
| 1777990995 | 16.11° C | 78% | 1010.2 hPa | 0 mm | 1.34 m/s, 56° | - | - |
| 1777990700 | 15.56° C | 77% | 1010.3 hPa | 0 mm | 1.34 m/s, 87° | - | - |
| 1777990401 | 16.11° C | 77% | 1010.4 hPa | 0 mm | 0.45 m/s, 44° | - | - |
| 1777990110 | 16.67° C | 76% | 1010.4 hPa | 0 mm | 0.45 m/s, 257° | - | - |
| 1777989810 | 16.67° C | 75% | 1010.2 hPa | 0 mm | 1.79 m/s, 188° | - | - |
| 1777989511 | 16.67° C | 73% | 1010.5 hPa | 0 mm | 1.34 m/s, 182° | - | - |
| 1777989199 | 16.67° C | 74% | 1010.6 hPa | 0 mm | 1.34 m/s, 99° | - | - |
| 1777988900 | 16.67° C | 74% | 1010.5 hPa | 0 mm | 1.34 m/s, 229° | - | - |
| 1777988609 | 16.67° C | 73% | 1010.7 hPa | 0 mm | 2.24 m/s, 79° | - | - |
| 1777988309 | 16.67° C | 73% | 1010.7 hPa | 0 mm | 1.34 m/s, 90° | - | - |
* Rain latest hour (hover to see other rain measurements)
** Current wind speed in m/s (hover to see current wind gust speed)